Flight Number: EUR2047 Duration: 6:00
Departure: Munich Int'l (EDDM) at 08:00 Distance: 2467 Nm
Arrival: Dubai Int'l (OMDB) at 14:00 Equipment: A340

Weather Information
Munchen, Germany (EDDM) 48-21N 011-47E Feb 24, 2018 - 12:50 AM EST / 2018.02.24 0550 UTC
Wind: from the ENE (070 degrees) at 12 MPH (10 KT):0
Visibility: greater than 7 mile(s):0
Sky conditions: partly cloudy Temperature: 23 F (-5 C)
Windchill: 12 F (-11 C):1 Dew Point: 17 F (-8 C) Relative Humidity: 79% Pressure (altimeter): 30.03 in. Hg (1017 hPa)
ob: EDDM 240550Z 07010KT 9999 SCT018 M05/M08 Q1017 NOSIG cycle: 6
Sunrise: 06:06 Sunset: 16:45 (UTC)

Dubai International Airport, United Arab Emirates (OMDB) 25-15N 055-20E 5M Feb 24, 2018 - 01:00 AM EST / 2018.02.24 0600 UTC
Wind: from the SSE (160 degrees) at 10 MPH (9 KT) (direction variable):0
Visibility: greater than 7 mile(s):0 Temperature: 84 F (29 C) Dew Point: 53 F (12 C) Relative Humidity: 34% Pressure (altimeter): 29.88 in. Hg (1012 hPa)
ob: OMDB 240600Z 16009KT 130V190 CAVOK 29/12 Q1012 NOSIG cycle: 6
Sunrise: 02:48 Sunset: 14:15 (UTC)

TAF:2018/02/24 06:06 TAF OMDB 240503Z 2406/2512 18012KT 8000 NSC BECMG 2409/2411 35012KT BECMG 2415/2417 06007KT BECMG 2500/2502 17012KT PROB30 TEMPO 2502/2512 VRB18G28KT 3000 TSRA BKN040CB BECMG 2506/2508 33015KT

Previous Pireps for this route
Date Aircraft Flight time Fuel used Landing rate On time
2012-08-13A3405.45730000Yes
2012-10-06A34005.4895165-748Yes
2012-10-28A3406.001250000No
2012-12-08A34005.42149767-228Yes
2013-02-01A3405.301821000No
2013-02-28A3406.08100900No
2013-03-26A34005.2699508-228Yes
2013-04-08B73705.4731128-130Charter
2013-05-31A34006.06101633-552Yes
2014-04-01A34005.56102065-410Yes
2014-06-29A3405.44918400No
2015-01-31A34005.2286794-158No
2015-03-25B74705.39125580-261Charter
2015-05-01A34005.33120903-69Yes
2015-05-27B74705.59119407-102Charter
2015-08-06A34005.2682535-84Yes
2015-08-26A34005.2183745-190Yes
2016-06-08B77705.4990055-508.46Yes
(pireps marked green are flown by you)

Route map